createdAt,value
2022-10-05T04:31:00.581Z,0.00
2022-10-05T04:32:00.510Z,0.00
2022-10-05T04:33:00.470Z,0.00
2022-10-05T04:34:00.424Z,0.00
2022-10-05T04:35:00.403Z,0.00
2022-10-05T04:36:00.398Z,0.00
2022-10-05T04:37:00.428Z,0.00
2022-10-05T04:38:00.358Z,0.00
2022-10-05T04:39:00.408Z,0.00
2022-10-05T04:40:00.343Z,0.00
2022-10-05T04:41:00.317Z,0.00
2022-10-05T04:42:00.307Z,0.00
2022-10-05T04:43:00.289Z,0.00
2022-10-05T04:44:00.287Z,0.00
2022-10-05T04:45:00.269Z,0.00
2022-10-05T04:46:00.267Z,0.00
2022-10-05T04:47:00.339Z,0.00
2022-10-05T04:48:00.228Z,0.00
2022-10-05T04:49:00.226Z,0.00
2022-10-05T04:50:00.231Z,0.00
2022-10-05T04:51:00.176Z,0.00
2022-10-05T04:52:00.177Z,0.00
2022-10-05T04:53:00.178Z,0.00
2022-10-05T04:54:00.166Z,0.00
2022-10-05T04:55:00.158Z,0.00
2022-10-05T04:56:00.205Z,0.00
2022-10-05T04:57:00.108Z,0.00
2022-10-05T04:58:00.099Z,0.00
2022-10-05T04:59:00.095Z,0.00
2022-10-05T05:00:00.081Z,0.00
2022-10-05T05:01:00.112Z,0.00
2022-10-05T05:02:00.044Z,0.00
2022-10-05T05:03:00.025Z,0.00
2022-10-05T05:04:00.066Z,0.00
2022-10-05T05:05:00.009Z,0.00
2022-10-05T05:06:16.395Z,0.00
2022-10-05T05:07:00.987Z,0.00
2022-10-05T05:08:00.087Z,0.00
2022-10-05T05:08:59.959Z,0.00
2022-10-05T05:09:59.945Z,0.00
2022-10-05T05:10:59.928Z,0.00
2022-10-05T05:11:59.938Z,0.00
2022-10-05T05:12:59.909Z,4.00
2022-10-05T05:13:59.919Z,4.00
2022-10-05T05:14:59.904Z,0.00
2022-10-05T05:15:59.945Z,4.00
2022-10-05T05:16:59.891Z,4.00
2022-10-05T05:17:59.847Z,4.00
2022-10-05T05:18:59.824Z,8.00
2022-10-05T05:19:59.815Z,8.00
2022-10-05T05:20:59.784Z,8.00
2022-10-05T05:21:59.774Z,12.00
2022-10-05T05:22:59.767Z,12.00
2022-10-05T05:23:59.766Z,16.00
2022-10-05T05:24:59.733Z,20.00
2022-10-05T05:25:59.724Z,20.00
2022-10-05T05:26:59.715Z,24.00
2022-10-05T05:27:59.747Z,28.00
2022-10-05T05:28:59.769Z,28.00
2022-10-05T05:29:59.714Z,32.00
2022-10-05T05:30:59.722Z,32.00
2022-10-05T05:31:59.643Z,40.00
2022-10-05T05:32:59.631Z,48.00
2022-10-05T05:33:59.641Z,56.00
2022-10-05T05:34:59.604Z,68.00
2022-10-05T05:35:59.595Z,72.00
2022-10-05T05:36:59.573Z,80.00
2022-10-05T05:37:59.594Z,84.00
2022-10-05T05:38:59.608Z,92.00
2022-10-05T05:39:59.764Z,100.00
2022-10-05T05:40:59.522Z,108.00
2022-10-05T05:41:59.512Z,112.00
2022-10-05T05:42:59.505Z,120.00
2022-10-05T05:43:59.483Z,132.00
2022-10-05T05:44:59.581Z,144.00
2022-10-05T05:45:59.482Z,164.00
2022-10-05T05:47:04.019Z,160.00
2022-10-05T05:48:00.492Z,172.00
2022-10-05T05:48:59.441Z,184.00
2022-10-05T05:50:05.596Z,192.00
2022-10-05T05:51:00.492Z,212.00
2022-10-05T05:51:59.372Z,236.00
2022-10-05T05:52:59.373Z,256.00
2022-10-05T05:53:59.359Z,272.00
2022-10-05T05:54:59.351Z,304.00
2022-10-05T05:55:59.321Z,336.00
2022-10-05T05:56:59.411Z,348.00
2022-10-05T05:57:59.331Z,384.00
2022-10-05T05:58:59.291Z,408.00
2022-10-05T05:59:59.282Z,444.00
2022-10-05T06:00:59.261Z,468.00
2022-10-05T06:01:59.293Z,516.00
2022-10-05T06:02:59.353Z,548.00
2022-10-05T06:03:59.220Z,564.00
2022-10-05T06:04:59.221Z,576.00
2022-10-05T06:05:59.191Z,608.00
2022-10-05T06:06:59.180Z,640.00
2022-10-05T06:07:59.160Z,636.00
2022-10-05T06:08:59.190Z,664.00
2022-10-05T06:09:59.150Z,700.00
2022-10-05T06:10:59.130Z,716.00
2022-10-05T06:11:59.110Z,736.00
2022-10-05T06:13:01.729Z,768.00
2022-10-05T06:13:59.091Z,792.00
2022-10-05T06:14:59.089Z,888.00
2022-10-05T06:15:59.091Z,948.00
2022-10-05T06:16:59.057Z,988.00
2022-10-05T06:17:59.028Z,1016.00
2022-10-05T06:18:59.033Z,1032.00
2022-10-05T06:20:04.002Z,1072.00
2022-10-05T06:21:00.002Z,1096.00
2022-10-05T06:21:58.981Z,1148.00
2022-10-05T06:22:58.969Z,1180.00
2022-10-05T06:23:58.955Z,1200.00
2022-10-05T06:24:58.971Z,1220.00
2022-10-05T06:25:58.929Z,1248.00
2022-10-05T06:26:58.919Z,1236.00
2022-10-05T06:27:58.930Z,1144.00
2022-10-05T06:28:58.887Z,1096.00
2022-10-05T06:29:58.878Z,968.00
2022-10-05T06:30:58.882Z,900.00
2022-10-05T06:31:59.223Z,928.00
2022-10-05T06:32:58.837Z,992.00
2022-10-05T06:33:58.818Z,1064.00
2022-10-05T06:34:58.819Z,1100.00
2022-10-05T06:35:58.805Z,1148.00
2022-10-05T06:36:58.789Z,1276.00
2022-10-05T06:37:58.766Z,1348.00
2022-10-05T06:38:58.757Z,1416.00
2022-10-05T06:40:01.102Z,1476.00
2022-10-05T06:40:58.748Z,1452.00
2022-10-05T06:41:58.721Z,1432.00
2022-10-05T06:42:58.715Z,1412.00
2022-10-05T06:43:58.691Z,1444.00
2022-10-05T06:44:58.699Z,1492.00
2022-10-05T06:45:58.757Z,1476.00
2022-10-05T06:46:58.661Z,1528.00
2022-10-05T06:48:02.809Z,1516.00
2022-10-05T06:48:59.637Z,1480.00
2022-10-05T06:49:58.607Z,1464.00
2022-10-05T06:50:58.616Z,1436.00
2022-10-05T06:51:58.576Z,1412.00
2022-10-05T06:52:58.567Z,1444.00
2022-10-05T06:53:58.610Z,1500.00
2022-10-05T06:54:58.545Z,1500.00
2022-10-05T06:55:58.536Z,1520.00
2022-10-05T06:56:58.542Z,1616.00
2022-10-05T06:57:58.549Z,1660.00
2022-10-05T06:58:58.555Z,1668.00
2022-10-05T06:59:58.487Z,1720.00
2022-10-05T07:00:58.517Z,1856.00
2022-10-05T07:01:58.539Z,1884.00
2022-10-05T07:02:58.445Z,1868.00
2022-10-05T07:03:58.424Z,1812.00
2022-10-05T07:04:58.415Z,1780.00
2022-10-05T07:05:58.405Z,1804.00
2022-10-05T07:06:58.385Z,1820.00
2022-10-05T07:07:58.375Z,1884.00
2022-10-05T07:08:58.355Z,1956.00
2022-10-05T07:09:58.335Z,1980.00
2022-10-05T07:10:58.385Z,2044.00
2022-10-05T07:12:03.774Z,2016.00
2022-10-05T07:12:59.305Z,2056.00
2022-10-05T07:13:58.317Z,2120.00
2022-10-05T07:14:58.305Z,2116.00
2022-10-05T07:15:58.303Z,2084.00
2022-10-05T07:16:58.290Z,2140.00
2022-10-05T07:17:58.236Z,2128.00
2022-10-05T07:18:58.227Z,2096.00
2022-10-05T07:19:58.215Z,2140.00
2022-10-05T07:20:58.194Z,2136.00
2022-10-05T07:21:58.218Z,2068.00
2022-10-05T07:22:58.174Z,2156.00
2022-10-05T07:23:58.155Z,2128.00
2022-10-05T07:24:58.149Z,2172.00
2022-10-05T07:25:58.125Z,2224.00
2022-10-05T07:26:58.125Z,2216.00
2022-10-05T07:27:58.127Z,2164.00
2022-10-05T07:28:58.095Z,2176.00
2022-10-05T07:29:58.074Z,2108.00
2022-10-05T07:30:58.084Z,1876.00
2022-10-05T07:31:58.064Z,1764.00
2022-10-05T07:32:58.035Z,1660.00
2022-10-05T07:33:58.025Z,1592.00
2022-10-05T07:34:58.004Z,1524.00
2022-10-05T07:35:58.004Z,1460.00
2022-10-05T07:36:58.559Z,1444.00
2022-10-05T07:37:57.993Z,1500.00
2022-10-05T07:38:57.954Z,1472.00
2022-10-05T07:40:01.569Z,1484.00
2022-10-05T07:40:57.928Z,1504.00
2022-10-05T07:41:57.931Z,1476.00
2022-10-05T07:42:57.905Z,1580.00
2022-10-05T07:44:02.617Z,1560.00
2022-10-05T07:44:58.874Z,1552.00
2022-10-05T07:45:57.947Z,1596.00
2022-10-05T07:46:57.865Z,1628.00
2022-10-05T07:47:57.880Z,1716.00
2022-10-05T07:48:57.839Z,1756.00
2022-10-05T07:49:57.814Z,1756.00
2022-10-05T07:50:57.811Z,1608.00
2022-10-05T07:51:57.783Z,1520.00
2022-10-05T07:52:57.763Z,1532.00
2022-10-05T07:53:57.764Z,1544.00
2022-10-05T07:54:57.755Z,1492.00
2022-10-05T07:55:57.761Z,1544.00
2022-10-05T07:56:57.712Z,1504.00
2022-10-05T07:57:57.703Z,1532.00
2022-10-05T07:58:57.691Z,1508.00
2022-10-05T07:59:57.683Z,1556.00
2022-10-05T08:00:57.732Z,1564.00
2022-10-05T08:01:57.690Z,1564.00
2022-10-05T08:02:57.704Z,1528.00
2022-10-05T08:03:57.762Z,1648.00
2022-10-05T08:04:57.613Z,1712.00
2022-10-05T08:05:57.601Z,1732.00
2022-10-05T08:06:57.600Z,1728.00
2022-10-05T08:07:57.572Z,1672.00
2022-10-05T08:08:57.561Z,1652.00
2022-10-05T08:09:57.551Z,1696.00
2022-10-05T08:10:57.533Z,1832.00
2022-10-05T08:11:57.532Z,2036.00
2022-10-05T08:12:57.502Z,2256.00
2022-10-05T08:13:57.521Z,2384.00
2022-10-05T08:14:57.490Z,2468.00
2022-10-05T08:15:57.561Z,2680.00
2022-10-05T08:16:57.471Z,2712.00
2022-10-05T08:17:57.441Z,2720.00
2022-10-05T08:18:57.421Z,2820.00
2022-10-05T08:19:57.422Z,2916.00
2022-10-05T08:20:57.401Z,2968.00
2022-10-05T08:21:57.402Z,2960.00
2022-10-05T08:22:57.371Z,2920.00
2022-10-05T08:23:57.371Z,2888.00
2022-10-05T08:24:57.550Z,2884.00
2022-10-05T08:25:57.341Z,2860.00
2022-10-05T08:26:57.432Z,3012.00
2022-10-05T08:27:57.369Z,2976.00
2022-10-05T08:28:57.292Z,2936.00
2022-10-05T08:29:57.292Z,2992.00
2022-10-05T08:30:57.398Z,2932.00
2022-10-05T08:31:57.270Z,2784.00
2022-10-05T08:32:57.260Z,2796.00
2022-10-05T08:33:57.230Z,2800.00
2022-10-05T08:34:57.220Z,2836.00
2022-10-05T08:35:57.210Z,2936.00
2022-10-05T08:36:57.202Z,3140.00
2022-10-05T08:37:57.219Z,3200.00
2022-10-05T08:38:57.162Z,3144.00
2022-10-05T08:39:57.158Z,3288.00
2022-10-05T08:40:57.149Z,3472.00
2022-10-05T08:41:57.140Z,3416.00
2022-10-05T08:42:57.110Z,3512.00
2022-10-05T08:43:57.118Z,3604.00
2022-10-05T08:44:57.090Z,3688.00
2022-10-05T08:45:57.115Z,3516.00
2022-10-05T08:46:57.078Z,3692.00
2022-10-05T08:47:57.052Z,3784.00
2022-10-05T08:48:57.037Z,3852.00
2022-10-05T08:49:57.022Z,3908.00
2022-10-05T08:50:57.006Z,3936.00
2022-10-05T08:51:57.011Z,3792.00
2022-10-05T08:52:56.979Z,3732.00
2022-10-05T08:53:56.971Z,3708.00
2022-10-05T08:54:57.009Z,3776.00
2022-10-05T08:55:56.948Z,3816.00
2022-10-05T08:56:56.941Z,3816.00
2022-10-05T08:57:56.911Z,3804.00
2022-10-05T08:58:56.899Z,3908.00
2022-10-05T08:59:56.895Z,4060.00
2022-10-05T09:00:56.870Z,3928.00
2022-10-05T09:01:56.904Z,4016.00
2022-10-05T09:02:56.912Z,4040.00
2022-10-05T09:03:56.829Z,4020.00
2022-10-05T09:04:56.819Z,3936.00
2022-10-05T09:05:56.809Z,4056.00
2022-10-05T09:06:56.810Z,4128.00
2022-10-05T09:07:56.779Z,4220.00
2022-10-05T09:08:56.760Z,4396.00
2022-10-05T09:10:00.882Z,4216.00
2022-10-05T09:10:57.739Z,4324.00
2022-10-05T09:11:56.740Z,4432.00
2022-10-05T09:12:56.710Z,4416.00
2022-10-05T09:13:56.699Z,4520.00
2022-10-05T09:15:20.880Z,4952.00
2022-10-05T09:15:57.757Z,4664.00
2022-10-05T09:16:56.668Z,4664.00
2022-10-05T09:17:56.687Z,4708.00
2022-10-05T09:18:56.630Z,4660.00
2022-10-05T09:19:56.626Z,4528.00
2022-10-05T09:20:56.598Z,4636.00
2022-10-05T09:21:56.621Z,4528.00
2022-10-05T09:22:56.569Z,4508.00
2022-10-05T09:23:56.569Z,4548.00
2022-10-05T09:24:56.549Z,4656.00
2022-10-05T09:25:56.538Z,4720.00
2022-10-05T09:26:56.529Z,4920.00
2022-10-05T09:27:56.546Z,4748.00
2022-10-05T09:28:56.599Z,4564.00
2022-10-05T09:29:56.488Z,4512.00
2022-10-05T09:30:56.512Z,4536.00
2022-10-05T09:31:56.478Z,4816.00
2022-10-05T09:32:56.439Z,4884.00
2022-10-05T09:33:56.429Z,4880.00
2022-10-05T09:34:56.429Z,4804.00
2022-10-05T09:35:56.410Z,5032.00
2022-10-05T09:36:56.406Z,5088.00
2022-10-05T09:37:56.380Z,5032.00
2022-10-05T09:38:56.359Z,5004.00
2022-10-05T09:40:00.539Z,4860.00
2022-10-05T09:40:57.330Z,4956.00
2022-10-05T09:41:56.327Z,5240.00
2022-10-05T09:42:56.320Z,5144.00
2022-10-05T09:43:56.297Z,5468.00
2022-10-05T09:44:56.291Z,5360.00
2022-10-05T09:45:56.320Z,5588.00
2022-10-05T09:46:56.259Z,5596.00
2022-10-05T09:47:56.258Z,5676.00
2022-10-05T09:48:56.230Z,5680.00
2022-10-05T09:49:56.220Z,5800.00
2022-10-05T09:50:56.198Z,5728.00
2022-10-05T09:51:56.197Z,5644.00
2022-10-05T09:52:56.188Z,5684.00
2022-10-05T09:53:56.166Z,5592.00
2022-10-05T09:54:56.153Z,5572.00
2022-10-05T09:55:56.137Z,5416.00
2022-10-05T09:56:56.139Z,5508.00
2022-10-05T09:57:56.111Z,5808.00
2022-10-05T09:58:56.099Z,6128.00
2022-10-05T09:59:56.164Z,5900.00
2022-10-05T10:01:08.827Z,5612.00
2022-10-05T10:01:57.116Z,5832.00
2022-10-05T10:02:56.141Z,5976.00
2022-10-05T10:03:56.029Z,5984.00
2022-10-05T10:04:56.020Z,5856.00
2022-10-05T10:05:56.006Z,5792.00
2022-10-05T10:06:56.017Z,5648.00
2022-10-05T10:07:55.980Z,5716.00
2022-10-05T10:08:55.969Z,6096.00
2022-10-05T10:09:55.958Z,6388.00
2022-10-05T10:10:55.947Z,6272.00
2022-10-05T10:11:55.938Z,6124.00
2022-10-05T10:12:55.918Z,5944.00
2022-10-05T10:13:55.907Z,5824.00
2022-10-05T10:15:00.537Z,5764.00
2022-10-05T10:15:56.949Z,5580.00
2022-10-05T10:16:55.889Z,5644.00
2022-10-05T10:17:55.849Z,5732.00
2022-10-05T10:18:55.837Z,6236.00
2022-10-05T10:19:55.830Z,6572.00
2022-10-05T10:20:55.808Z,6328.00
2022-10-05T10:21:55.892Z,6192.00
2022-10-05T10:22:55.798Z,6400.00
2022-10-05T10:23:55.777Z,6628.00
2022-10-05T10:24:55.759Z,6596.00
2022-10-05T10:25:55.748Z,6928.00
2022-10-05T10:26:55.750Z,6788.00
2022-10-05T10:27:55.789Z,7388.00
2022-10-05T10:28:55.704Z,7824.00
2022-10-05T10:29:55.696Z,7824.00
2022-10-05T10:30:55.686Z,7852.00
2022-10-05T10:31:55.668Z,8952.00
2022-10-05T10:32:55.657Z,8936.00
2022-10-05T10:33:55.641Z,9548.00
2022-10-05T10:34:55.617Z,9424.00
2022-10-05T10:35:55.626Z,9076.00
2022-10-05T10:36:55.618Z,8164.00
2022-10-05T10:37:55.597Z,7428.00
2022-10-05T10:38:55.569Z,7480.00
2022-10-05T10:39:55.566Z,7816.00
2022-10-05T10:40:55.540Z,9016.00
2022-10-05T10:41:55.528Z,10104.00
2022-10-05T10:42:55.535Z,10116.00
2022-10-05T10:43:55.508Z,9468.00
2022-10-05T10:44:55.532Z,8512.00
2022-10-05T10:45:55.487Z,7344.00
2022-10-05T10:46:55.515Z,7420.00
2022-10-05T10:47:55.468Z,7508.00
2022-10-05T10:48:55.438Z,8028.00
2022-10-05T10:49:55.428Z,8816.00
2022-10-05T10:50:55.414Z,10312.00
2022-10-05T10:51:55.407Z,10240.00
2022-10-05T10:52:55.399Z,9364.00
2022-10-05T10:53:55.375Z,9312.00
2022-10-05T10:54:55.347Z,9108.00
2022-10-05T10:55:55.349Z,8932.00
2022-10-05T10:56:55.338Z,9520.00
2022-10-05T10:57:55.318Z,9224.00
2022-10-05T10:58:55.309Z,8436.00
2022-10-05T10:59:55.298Z,10608.00
2022-10-05T11:00:55.276Z,15392.00
2022-10-05T11:01:55.317Z,13708.00
2022-10-05T11:02:55.291Z,13340.00
2022-10-05T11:03:55.239Z,8268.00
2022-10-05T11:04:55.219Z,7852.00
2022-10-05T11:05:55.209Z,8636.00
2022-10-05T11:06:55.196Z,11816.00
2022-10-05T11:07:55.198Z,10756.00
2022-10-05T11:08:55.168Z,10224.00
2022-10-05T11:09:55.158Z,10244.00
2022-10-05T11:10:55.140Z,10236.00
2022-10-05T11:11:55.128Z,10480.00
2022-10-05T11:12:55.130Z,11092.00
2022-10-05T11:13:55.098Z,12280.00
2022-10-05T11:14:55.089Z,10384.00
2022-10-05T11:15:55.155Z,10524.00
2022-10-05T11:16:55.060Z,11928.00
2022-10-05T11:17:55.058Z,14004.00
2022-10-05T11:18:55.037Z,11284.00
2022-10-05T11:20:10.261Z,11448.00
2022-10-05T11:20:56.007Z,10028.00
2022-10-05T11:21:54.997Z,8764.00
2022-10-05T11:22:55.000Z,9620.00
2022-10-05T11:23:54.980Z,9040.00
2022-10-05T11:24:54.957Z,8924.00
2022-10-05T11:25:54.947Z,10400.00
2022-10-05T11:26:54.930Z,12864.00
2022-10-05T11:27:54.995Z,13752.00
2022-10-05T11:28:54.910Z,12048.00
2022-10-05T11:29:54.897Z,14884.00
2022-10-05T11:30:54.957Z,12740.00
2022-10-05T11:31:54.913Z,15840.00
2022-10-05T11:32:54.891Z,15520.00
2022-10-05T11:33:54.839Z,13868.00
2022-10-05T11:34:54.818Z,15872.00
2022-10-05T11:35:54.816Z,20832.00
2022-10-05T11:36:54.799Z,21600.00
2022-10-05T11:37:54.798Z,18016.00
2022-10-05T11:38:54.769Z,19808.00
2022-10-05T11:39:54.767Z,20960.00
2022-10-05T11:40:54.758Z,27840.00
2022-10-05T11:41:54.736Z,19232.00
2022-10-05T11:42:54.727Z,20448.00
2022-10-05T11:43:54.707Z,19456.00
2022-10-05T11:44:54.698Z,30816.00
2022-10-05T11:45:54.678Z,55904.00
2022-10-05T11:46:54.742Z,27936.00
2022-10-05T11:47:54.670Z,40128.00
2022-10-05T11:48:54.640Z,38848.00
2022-10-05T11:49:54.629Z,44192.00
2022-10-05T11:50:54.614Z,71136.00
2022-10-05T11:51:54.611Z,86784.00
2022-10-05T11:52:54.599Z,89632.00
2022-10-05T11:53:54.579Z,40352.00
2022-10-05T11:55:11.638Z,18080.00
2022-10-05T11:55:55.549Z,84096.00
2022-10-05T11:56:54.889Z,78400.00
2022-10-05T11:57:54.534Z,88512.00
2022-10-05T11:58:54.534Z,52352.00
2022-10-05T11:59:54.508Z,75328.00
2022-10-05T12:00:54.479Z,90976.00
2022-10-05T12:01:54.470Z,92704.00
2022-10-05T12:02:54.544Z,48288.00
2022-10-05T12:03:54.544Z,91360.00
2022-10-05T12:04:54.437Z,91648.00
2022-10-05T12:05:54.420Z,92896.00
2022-10-05T12:06:54.410Z,91328.00
2022-10-05T12:07:54.397Z,59168.00
2022-10-05T12:08:54.390Z,92320.00
2022-10-05T12:09:54.371Z,28864.00
2022-10-05T12:10:54.368Z,19552.00
2022-10-05T12:11:57.709Z,22048.00
2022-10-05T12:12:54.340Z,91968.00
2022-10-05T12:13:54.332Z,91040.00
2022-10-05T12:14:54.301Z,93152.00
2022-10-05T12:15:54.329Z,63328.00
2022-10-05T12:16:54.273Z,34400.00
2022-10-05T12:17:54.271Z,87200.00
2022-10-05T12:18:54.262Z,91104.00
2022-10-05T12:19:54.242Z,90944.00
2022-10-05T12:20:54.276Z,83200.00
2022-10-05T12:21:54.222Z,89440.00
2022-10-05T12:22:54.204Z,89696.00
2022-10-05T12:23:54.204Z,90688.00
2022-10-05T12:24:54.181Z,16672.00
2022-10-05T12:25:54.174Z,90880.00
2022-10-05T12:26:54.156Z,88544.00
2022-10-05T12:27:54.202Z,88960.00
2022-10-05T12:28:54.133Z,89056.00
2022-10-05T12:29:54.114Z,88128.00
2022-10-05T12:30:54.095Z,22560.00
2022-10-05T12:31:54.092Z,26944.00
2022-10-05T12:32:55.859Z,16248.00
2022-10-05T12:33:55.074Z,79424.00
2022-10-05T12:35:01.047Z,91232.00
2022-10-05T12:35:55.035Z,86688.00
2022-10-05T12:37:09.012Z,90880.00
2022-10-05T12:37:55.015Z,90976.00
2022-10-05T12:38:54.037Z,76832.00
2022-10-05T12:39:53.994Z,89952.00
2022-10-05T12:40:54.033Z,93408.00
2022-10-05T12:41:53.973Z,85920.00
2022-10-05T12:42:53.947Z,90176.00
2022-10-05T12:43:53.945Z,90528.00
2022-10-05T12:44:53.916Z,88704.00
2022-10-05T12:45:54.063Z,87168.00
2022-10-05T12:46:53.897Z,85408.00
2022-10-05T12:47:54.110Z,85920.00
2022-10-05T12:48:53.897Z,86656.00
2022-10-05T12:49:53.865Z,85056.00
2022-10-05T12:50:53.846Z,86848.00
2022-10-05T12:51:53.838Z,87616.00
2022-10-05T12:52:53.818Z,88224.00
2022-10-05T12:53:53.827Z,88064.00
2022-10-05T12:54:53.830Z,85696.00
2022-10-05T12:55:53.788Z,86496.00
2022-10-05T12:56:53.767Z,83776.00
2022-10-05T12:57:53.807Z,84448.00
2022-10-05T12:58:53.759Z,82880.00
2022-10-05T12:59:53.741Z,80896.00
2022-10-05T13:00:53.767Z,82720.00
2022-10-05T13:01:53.741Z,83264.00
2022-10-05T13:02:53.697Z,82688.00
2022-10-05T13:03:53.708Z,85536.00
2022-10-05T13:04:53.672Z,84864.00
2022-10-05T13:05:53.659Z,84544.00
2022-10-05T13:06:53.639Z,85184.00
2022-10-05T13:07:53.630Z,86272.00
2022-10-05T13:08:53.619Z,85856.00
2022-10-05T13:09:53.630Z,85504.00
2022-10-05T13:10:53.598Z,87104.00
2022-10-05T13:11:53.590Z,88544.00
2022-10-05T13:12:53.571Z,90176.00
2022-10-05T13:13:53.579Z,87840.00
2022-10-05T13:14:53.553Z,90080.00
2022-10-05T13:15:53.648Z,91008.00
2022-10-05T13:16:55.103Z,89760.00
2022-10-05T13:17:53.511Z,91040.00
2022-10-05T13:18:53.512Z,90048.00
2022-10-05T13:19:53.502Z,89440.00
2022-10-05T13:20:53.473Z,92416.00
2022-10-05T13:21:53.463Z,91040.00
2022-10-05T13:22:53.454Z,89632.00
2022-10-05T13:23:57.264Z,89152.00
2022-10-05T13:24:53.427Z,92288.00
2022-10-05T13:25:53.425Z,92864.00
2022-10-05T13:26:53.402Z,91104.00
2022-10-05T13:27:53.481Z,92096.00
2022-10-05T13:28:53.395Z,93760.00
2022-10-05T13:29:54.412Z,75872.00
2022-10-05T13:30:53.354Z,46752.00
2022-10-05T13:31:53.385Z,31872.00
2022-10-05T13:32:53.334Z,22784.00
2022-10-05T13:33:53.336Z,16896.00
2022-10-05T13:34:53.316Z,11324.00
2022-10-05T13:35:53.286Z,6800.00
2022-10-05T13:36:53.282Z,5860.00
2022-10-05T13:37:53.266Z,5816.00
2022-10-05T13:38:53.255Z,6708.00
2022-10-05T13:39:53.245Z,5796.00
2022-10-05T13:40:53.235Z,5628.00
2022-10-05T13:41:53.215Z,5484.00
2022-10-05T13:42:53.206Z,5380.00
2022-10-05T13:43:53.186Z,5396.00
2022-10-05T13:44:53.197Z,5380.00
2022-10-05T13:45:55.834Z,5280.00
2022-10-05T13:46:53.156Z,5224.00
2022-10-05T13:47:53.136Z,5124.00
2022-10-05T13:48:53.127Z,4992.00
2022-10-05T13:49:53.137Z,5032.00
2022-10-05T13:50:53.106Z,5072.00
2022-10-05T13:51:53.075Z,5052.00
2022-10-05T13:52:53.076Z,5016.00
2022-10-05T13:53:53.060Z,4968.00
2022-10-05T13:54:53.066Z,4972.00
2022-10-05T13:55:53.035Z,4968.00
2022-10-05T13:56:53.027Z,5004.00
2022-10-05T13:57:53.014Z,4968.00
2022-10-05T13:58:53.017Z,4916.00
2022-10-05T13:59:52.997Z,4952.00
2022-10-05T14:00:52.967Z,4940.00
2022-10-05T14:01:52.999Z,4984.00
2022-10-05T14:02:53.029Z,5040.00
2022-10-05T14:03:52.987Z,5040.00
2022-10-05T14:04:52.917Z,5036.00
2022-10-05T14:05:55.742Z,4984.00
2022-10-05T14:06:52.898Z,4896.00
2022-10-05T14:07:52.878Z,4924.00
2022-10-05T14:08:52.867Z,4960.00
2022-10-05T14:09:52.857Z,4852.00
2022-10-05T14:10:52.837Z,4848.00
2022-10-05T14:11:52.828Z,4776.00
2022-10-05T14:12:52.808Z,4772.00
2022-10-05T14:13:52.807Z,4768.00
2022-10-05T14:14:52.798Z,4732.00
2022-10-05T14:15:52.778Z,4660.00
2022-10-05T14:16:52.860Z,4620.00
2022-10-05T14:17:52.766Z,4592.00
2022-10-05T14:18:52.743Z,4568.00
2022-10-05T14:19:52.728Z,4568.00
2022-10-05T14:20:52.699Z,4572.00
2022-10-05T14:21:52.697Z,4552.00
2022-10-05T14:22:52.687Z,4524.00
2022-10-05T14:23:52.669Z,4488.00
2022-10-05T14:24:52.669Z,4472.00
2022-10-05T14:25:52.639Z,4460.00
2022-10-05T14:26:52.626Z,4456.00
2022-10-05T14:27:52.618Z,4456.00
2022-10-05T14:28:52.598Z,4440.00
2022-10-05T14:29:52.589Z,4444.00
2022-10-05T14:30:56.796Z,4448.00
2022-10-05T14:31:53.586Z,4432.00
2022-10-05T14:32:52.553Z,4412.00
2022-10-05T14:33:52.549Z,4396.00
2022-10-05T14:34:52.518Z,4380.00
2022-10-05T14:35:52.517Z,4376.00
2022-10-05T14:36:52.527Z,4352.00
2022-10-05T14:37:52.532Z,4388.00
2022-10-05T14:38:52.475Z,4388.00
2022-10-05T14:39:52.472Z,4332.00
2022-10-05T14:40:52.439Z,4280.00
2022-10-05T14:41:52.449Z,4264.00
2022-10-05T14:42:52.419Z,4288.00
2022-10-05T14:43:52.411Z,4288.00
2022-10-05T14:44:52.399Z,4268.00
2022-10-05T14:45:52.406Z,4244.00
2022-10-05T14:46:52.373Z,4252.00
2022-10-05T14:47:52.359Z,4256.00
2022-10-05T14:48:52.347Z,4216.00
2022-10-05T14:49:52.371Z,4192.00
2022-10-05T14:50:52.318Z,4188.00
2022-10-05T14:51:52.299Z,4216.00
2022-10-05T14:52:52.347Z,4204.00
2022-10-05T14:53:52.278Z,4160.00
2022-10-05T14:54:52.257Z,4140.00
2022-10-05T14:55:52.272Z,4156.00
2022-10-05T14:56:52.229Z,4184.00
2022-10-05T14:57:52.219Z,4168.00
2022-10-05T14:58:52.217Z,4188.00
2022-10-05T14:59:52.197Z,4200.00
2022-10-05T15:00:52.206Z,4220.00
2022-10-05T15:01:52.214Z,4224.00
2022-10-05T15:02:52.149Z,4252.00
2022-10-05T15:03:52.149Z,4272.00
2022-10-05T15:04:52.130Z,4316.00
2022-10-05T15:05:52.141Z,4384.00
2022-10-05T15:06:55.286Z,4424.00
2022-10-05T15:07:52.093Z,4476.00
2022-10-05T15:08:52.070Z,4528.00
2022-10-05T15:09:52.068Z,4580.00
2022-10-05T15:10:52.064Z,4704.00
2022-10-05T15:11:52.040Z,5192.00
2022-10-05T15:12:52.019Z,8004.00
2022-10-05T15:13:52.011Z,12848.00
2022-10-05T15:14:51.991Z,18656.00
2022-10-05T15:15:52.010Z,37536.00
2022-10-05T15:16:52.054Z,53760.00
2022-10-05T15:17:51.967Z,58496.00
2022-10-05T15:18:51.940Z,60608.00
2022-10-05T15:19:51.941Z,59040.00
2022-10-05T15:20:51.931Z,58400.00
2022-10-05T15:21:51.900Z,57536.00
2022-10-05T15:22:51.890Z,56192.00
2022-10-05T15:23:51.893Z,57408.00
2022-10-05T15:24:51.870Z,57952.00
2022-10-05T15:25:51.871Z,56928.00
2022-10-05T15:26:51.840Z,56992.00
2022-10-05T15:27:51.831Z,56448.00
2022-10-05T15:28:51.811Z,55488.00
2022-10-05T15:29:52.524Z,55808.00
2022-10-05T15:30:51.883Z,55680.00
2022-10-05T15:31:51.787Z,54720.00
2022-10-05T15:32:51.762Z,55616.00
2022-10-05T15:33:51.762Z,55744.00
2022-10-05T15:34:51.732Z,54528.00
2022-10-05T15:35:51.733Z,53696.00
2022-10-05T15:36:51.722Z,52704.00
2022-10-05T15:37:51.703Z,49952.00
2022-10-05T15:38:51.683Z,49856.00
2022-10-05T15:39:51.676Z,49568.00
2022-10-05T15:40:51.663Z,48032.00
2022-10-05T15:41:51.663Z,47520.00
2022-10-05T15:42:51.634Z,46688.00
2022-10-05T15:43:51.627Z,44096.00
2022-10-05T15:44:51.604Z,43488.00
2022-10-05T15:45:53.950Z,42912.00
2022-10-05T15:46:51.596Z,38912.00
2022-10-05T15:47:51.576Z,40608.00
2022-10-05T15:48:51.588Z,39264.00
2022-10-05T15:49:51.545Z,37344.00
2022-10-05T15:50:51.534Z,27936.00
2022-10-05T15:51:51.586Z,35904.00
2022-10-05T15:52:51.506Z,16928.00
2022-10-05T15:53:51.495Z,30944.00
2022-10-05T15:54:51.483Z,9700.00
2022-10-05T15:55:51.475Z,4956.00
2022-10-05T15:56:51.456Z,4568.00
2022-10-05T15:57:51.444Z,4576.00
2022-10-05T15:58:51.425Z,4760.00
2022-10-05T15:59:51.415Z,6716.00
2022-10-05T16:00:51.426Z,3836.00
2022-10-05T16:01:51.406Z,4080.00
2022-10-05T16:02:51.440Z,3140.00
2022-10-05T16:03:51.365Z,10376.00
2022-10-05T16:04:51.363Z,6580.00
2022-10-05T16:05:51.337Z,3644.00
2022-10-05T16:06:51.336Z,3624.00
2022-10-05T16:07:51.315Z,3068.00
2022-10-05T16:08:51.321Z,2744.00
2022-10-05T16:09:51.287Z,2312.00
2022-10-05T16:10:51.274Z,2288.00
2022-10-05T16:11:51.277Z,1732.00
2022-10-05T16:12:51.236Z,1352.00
2022-10-05T16:13:51.238Z,1104.00
2022-10-05T16:14:51.241Z,1016.00
2022-10-05T16:15:51.218Z,1060.00
2022-10-05T16:16:51.230Z,1164.00
2022-10-05T16:17:51.185Z,968.00
2022-10-05T16:18:51.166Z,940.00
2022-10-05T16:19:51.165Z,1060.00
2022-10-05T16:20:51.144Z,1212.00
2022-10-05T16:21:51.147Z,1372.00
2022-10-05T16:22:51.115Z,1496.00
2022-10-05T16:23:51.105Z,1568.00
2022-10-05T16:24:51.086Z,1604.00
2022-10-05T16:25:51.076Z,1404.00
2022-10-05T16:26:51.067Z,1332.00
2022-10-05T16:27:51.047Z,1272.00
2022-10-05T16:28:51.074Z,1368.00
2022-10-05T16:29:51.027Z,1280.00
2022-10-05T16:30:51.053Z,1188.00
2022-10-05T16:31:51.006Z,1208.00
2022-10-05T16:32:50.987Z,1232.00
2022-10-05T16:33:50.987Z,1184.00
2022-10-05T16:34:50.958Z,1100.00
2022-10-05T16:35:50.937Z,1072.00
2022-10-05T16:36:50.958Z,1020.00